Time;durP1;ratioP1;P1;durP2;ratioP2;P2;SDS_P1;SDS_P2;PMS_P1;PMS_P2;Temp;Humidity;BMP_temperature;BMP_pressure;BME280_temperature;BME280_humidity;BME280_pressure;Samples;Min_cycle;Max_cycle;Signal;HPM_P1;HPM_P2
2020/12/04 00:00:23;;;;;;;5.23;2.87;;;6.40;99.90;;;;;;5094567;28;20205;-76
2020/12/04 00:02:50;;;;;;;7.93;4.10;;;6.50;99.90;;;;;;5094350;28;20202;-76
2020/12/04 00:05:16;;;;;;;4.90;3.77;;;6.60;99.90;;;;;;5094591;28;20704;-76
2020/12/04 00:07:43;;;;;;;3.20;2.90;;;6.50;99.90;;;;;;5086274;28;20198;-76
2020/12/04 00:10:10;;;;;;;4.83;4.27;;;6.50;99.90;;;;;;5094706;28;20209;-76
2020/12/04 00:12:40;;;;;;;5.27;4.57;;;6.50;99.90;;;;;;5094694;28;20562;-77
2020/12/04 00:15:07;;;;;;;12.23;8.43;;;6.50;99.90;;;;;;5086118;28;20202;-76
2020/12/04 00:17:34;;;;;;;6.27;5.17;;;6.50;99.90;;;;;;5094750;28;20209;-76
2020/12/04 00:20:00;;;;;;;3.20;2.90;;;6.50;99.90;;;;;;5094566;28;20209;-76
2020/12/04 00:22:27;;;;;;;10.90;7.03;;;6.60;99.90;;;;;;5094748;28;20198;-76
2020/12/04 00:24:53;;;;;;;6.10;4.67;;;6.60;99.90;;;;;;5094347;28;20325;-76
2020/12/04 00:27:21;;;;;;;5.40;4.43;;;6.50;99.90;;;;;;5094476;28;20201;-76
2020/12/04 00:29:47;;;;;;;6.03;3.17;;;6.60;99.90;;;;;;5094678;28;20213;-76
2020/12/04 00:32:14;;;;;;;4.20;3.70;;;6.50;99.90;;;;;;5095908;28;20202;-76
2020/12/04 00:34:40;;;;;;;4.63;4.00;;;6.60;99.90;;;;;;5094535;28;20210;-77
2020/12/04 00:37:07;;;;;;;4.33;3.27;;;6.60;99.90;;;;;;5093958;28;20244;-76
2020/12/04 00:39:34;;;;;;;3.20;2.90;;;6.60;99.90;;;;;;5094315;28;20198;-76
2020/12/04 00:42:01;;;;;;;3.50;3.20;;;6.60;99.90;;;;;;5094082;28;20746;-77
2020/12/04 00:44:28;;;;;;;2.50;1.90;;;6.60;99.90;;;;;;5093973;28;20626;-75
2020/12/04 00:46:55;;;;;;;3.17;2.27;;;6.60;99.90;;;;;;5094207;28;20198;-76
2020/12/04 00:49:21;;;;;;;2.87;2.67;;;6.60;99.90;;;;;;5093986;28;20271;-76
2020/12/04 00:51:52;;;;;;;2.63;2.33;;;6.60;99.90;;;;;;5094126;28;20201;-75
2020/12/04 00:54:18;;;;;;;2.03;1.87;;;6.60;99.90;;;;;;5093916;28;20201;-76
2020/12/04 00:56:45;;;;;;;3.50;2.33;;;6.60;99.90;;;;;;5093780;28;20198;-76
2020/12/04 00:59:12;;;;;;;2.60;2.40;;;6.60;99.90;;;;;;5093256;28;20213;-76
2020/12/04 01:01:39;;;;;;;2.27;1.97;;;6.60;99.90;;;;;;5094045;28;20202;-76
2020/12/04 01:04:06;;;;;;;3.20;2.40;;;6.60;99.90;;;;;;5093626;28;20252;-76
2020/12/04 01:06:32;;;;;;;3.10;2.57;;;6.60;99.90;;;;;;5093658;28;20198;-76
2020/12/04 01:08:59;;;;;;;2.30;1.93;;;6.60;99.90;;;;;;5093787;28;20202;-76
2020/12/04 01:11:27;;;;;;;1.80;1.70;;;6.60;99.90;;;;;;5093298;28;20259;-77
2020/12/04 01:13:53;;;;;;;3.63;2.00;;;6.60;99.90;;;;;;5094032;28;20230;-76
2020/12/04 01:16:20;;;;;;;2.63;2.37;;;6.70;99.90;;;;;;5095262;28;20202;-77
2020/12/04 01:18:47;;;;;;;1.90;1.57;;;6.60;99.90;;;;;;5093506;28;20202;-75
2020/12/04 01:21:14;;;;;;;2.47;2.00;;;6.70;99.90;;;;;;5093656;28;20614;-76
2020/12/04 01:23:41;;;;;;;1.70;1.50;;;6.70;99.90;;;;;;5093129;28;20210;-76
2020/12/04 01:26:08;;;;;;;2.40;1.80;;;6.70;99.90;;;;;;5093101;28;20198;-76
2020/12/04 01:28:35;;;;;;;1.80;1.70;;;6.70;99.90;;;;;;5092699;28;20198;-76
2020/12/04 01:31:02;;;;;;;2.17;1.70;;;6.70;99.90;;;;;;5093209;28;20195;-75
2020/12/04 01:33:28;;;;;;;2.87;1.70;;;6.80;99.90;;;;;;5093272;28;20206;-76
2020/12/04 01:35:56;;;;;;;1.80;1.70;;;6.80;99.90;;;;;;5092905;28;20198;-76
2020/12/04 01:38:23;;;;;;;3.27;1.80;;;6.80;99.90;;;;;;5092895;28;20214;-75
2020/12/04 01:40:50;;;;;;;2.43;1.70;;;6.80;99.90;;;;;;5092818;28;20567;-75
2020/12/04 01:43:16;;;;;;;2.07;1.43;;;6.80;99.90;;;;;;5093172;28;20203;-76
2020/12/04 01:45:43;;;;;;;2.33;1.70;;;6.80;99.90;;;;;;5092682;28;20225;-76
2020/12/04 01:48:09;;;;;;;1.83;1.73;;;6.80;99.90;;;;;;5093053;28;20223;-76
2020/12/04 01:50:36;;;;;;;2.40;1.73;;;6.80;99.90;;;;;;5092680;28;20236;-76
2020/12/04 01:53:03;;;;;;;1.60;1.50;;;6.90;99.90;;;;;;5092654;28;20603;-75
2020/12/04 01:55:31;;;;;;;1.73;1.30;;;6.90;99.90;;;;;;5093350;28;20201;-76
2020/12/04 01:58:01;;;;;;;1.80;1.60;;;6.90;99.90;;;;;;5092723;28;20203;-76
2020/12/04 02:00:28;;;;;;;2.17;1.97;;;7.00;99.90;;;;;;5082562;28;20681;-75
2020/12/04 02:02:54;;;;;;;1.93;1.83;;;6.90;99.90;;;;;;5091312;28;20202;-75
2020/12/04 02:05:20;;;;;;;2.03;1.80;;;7.00;99.90;;;;;;5092689;28;20308;-75
2020/12/04 02:07:54;;;;;;;2.23;1.63;;;6.90;99.90;;;;;;5092498;28;20198;-76
2020/12/04 02:10:28;;;;;;;2.63;1.73;;;7.00;99.90;;;;;;5091839;28;20212;-75
2020/12/04 02:12:55;;;;;;;1.80;1.70;;;7.00;99.90;;;;;;5092426;28;20201;-76
2020/12/04 02:15:22;;;;;;;2.27;1.50;;;7.10;99.90;;;;;;5092583;28;20202;-76
2020/12/04 02:17:54;;;;;;;1.97;1.43;;;7.00;99.90;;;;;;5097266;28;20216;-76
2020/12/04 02:20:20;;;;;;;1.97;1.60;;;7.10;99.90;;;;;;5112409;28;20197;-77
2020/12/04 02:22:47;;;;;;;1.73;1.63;;;7.10;99.90;;;;;;5112696;28;20193;-76
2020/12/04 02:25:14;;;;;;;1.53;1.43;;;7.20;99.90;;;;;;5112764;28;20235;-76
2020/12/04 02:27:47;;;;;;;1.80;1.70;;;7.30;99.90;;;;;;5112880;28;20562;-76
2020/12/04 02:30:19;;;;;;;1.83;1.73;;;7.20;99.90;;;;;;5112577;28;20197;-75
2020/12/04 02:32:46;;;;;;;1.93;1.70;;;7.20;99.90;;;;;;5113157;28;20205;-76
2020/12/04 02:35:12;;;;;;;3.00;1.73;;;7.20;99.90;;;;;;5112105;28;20201;-76
2020/12/04 02:37:38;;;;;;;1.70;1.57;;;7.10;99.90;;;;;;5112813;28;20672;-76
2020/12/04 02:40:06;;;;;;;1.70;1.60;;;7.30;99.90;;;;;;5112433;28;20671;-75
2020/12/04 02:42:32;;;;;;;1.90;1.60;;;7.40;99.90;;;;;;5113037;28;20250;-76
2020/12/04 02:44:58;;;;;;;1.70;1.50;;;7.40;99.90;;;;;;5112707;28;20308;-75
2020/12/04 02:47:26;;;;;;;1.80;1.70;;;7.40;99.90;;;;;;5113660;28;20196;-75
2020/12/04 02:49:52;;;;;;;1.73;1.63;;;7.50;99.90;;;;;;5112876;28;20214;-76
2020/12/04 02:52:22;;;;;;;2.23;1.30;;;7.60;99.90;;;;;;5112477;28;20652;-76
2020/12/04 02:54:48;;;;;;;1.33;1.20;;;7.60;99.90;;;;;;5112905;28;20312;-76
2020/12/04 02:57:16;;;;;;;1.73;1.23;;;7.60;99.90;;;;;;5112654;28;20288;-76
2020/12/04 02:59:42;;;;;;;2.83;1.63;;;7.50;99.90;;;;;;5113050;28;20197;-75
2020/12/04 03:02:09;;;;;;;1.80;1.63;;;7.70;99.90;;;;;;5112531;28;20675;-77
2020/12/04 03:04:35;;;;;;;2.37;1.87;;;7.70;99.90;;;;;;5105823;28;20580;-76
2020/12/04 03:07:02;;;;;;;1.67;1.40;;;7.70;99.90;;;;;;5105069;28;20652;-76
2020/12/04 03:09:28;;;;;;;1.33;1.10;;;7.70;99.90;;;;;;5107595;28;20673;-77
2020/12/04 03:11:55;;;;;;;1.53;1.37;;;7.80;99.90;;;;;;5103287;28;20203;-77
2020/12/04 03:14:22;;;;;;;1.93;1.40;;;7.70;99.90;;;;;;5112691;28;20197;-78
2020/12/04 03:16:49;;;;;;;2.07;1.17;;;7.80;99.90;;;;;;5112630;28;20225;-77
2020/12/04 03:19:15;;;;;;;2.50;1.33;;;7.80;99.90;;;;;;5112301;28;20237;-77
2020/12/04 03:21:42;;;;;;;1.37;1.17;;;7.80;99.90;;;;;;5114341;28;20197;-77
2020/12/04 03:24:08;;;;;;;1.70;1.30;;;7.80;99.90;;;;;;5116088;28;20645;-77
2020/12/04 03:26:34;;;;;;;2.03;1.33;;;7.90;99.90;;;;;;5111215;28;20285;-77
2020/12/04 03:29:01;;;;;;;2.97;1.10;;;7.90;99.90;;;;;;5106879;28;20205;-77
2020/12/04 03:31:28;;;;;;;2.17;0.93;;;7.90;99.90;;;;;;5118514;28;20313;-76
2020/12/04 03:33:54;;;;;;;1.73;1.17;;;7.90;99.90;;;;;;5107941;28;20209;-76
2020/12/04 03:36:21;;;;;;;1.57;1.03;;;7.90;99.90;;;;;;5095346;28;20259;-76
2020/12/04 03:38:47;;;;;;;1.10;0.77;;;8.00;99.90;;;;;;5102899;28;20285;-75
2020/12/04 03:41:13;;;;;;;1.37;0.80;;;7.90;99.90;;;;;;5115511;28;20285;-74
2020/12/04 03:43:40;;;;;;;1.40;0.80;;;7.90;99.90;;;;;;5115728;28;20193;-75
2020/12/04 03:46:08;;;;;;;1.37;0.80;;;7.90;99.90;;;;;;5115541;28;20225;-75
2020/12/04 03:48:35;;;;;;;1.37;0.90;;;7.80;99.90;;;;;;5101432;28;20200;-75
2020/12/04 03:51:02;;;;;;;0.83;0.80;;;7.80;99.90;;;;;;5115620;28;20621;-74
2020/12/04 03:53:29;;;;;;;1.87;0.90;;;7.80;99.90;;;;;;5080994;28;20725;-75
2020/12/04 03:55:55;;;;;;;1.83;0.90;;;8.00;99.90;;;;;;5095474;28;20553;-75
2020/12/04 03:58:21;;;;;;;2.43;0.90;;;7.90;99.90;;;;;;5095197;28;20201;-76
2020/12/04 04:00:48;;;;;;;2.63;0.87;;;7.90;99.90;;;;;;5115273;28;20715;-76
2020/12/04 04:03:14;;;;;;;1.87;0.83;;;8.00;99.90;;;;;;5115223;28;20208;-76
2020/12/04 04:05:41;;;;;;;4.07;1.00;;;8.00;99.90;;;;;;5110885;28;20312;-75
2020/12/04 04:08:08;;;;;;;1.13;0.80;;;8.00;99.90;;;;;;5105688;28;20656;-75
2020/12/04 04:10:34;;;;;;;2.40;0.80;;;8.00;99.90;;;;;;5115125;28;20249;-75
2020/12/04 04:13:00;;;;;;;2.87;1.07;;;8.00;99.90;;;;;;5106554;28;20563;-76
2020/12/04 04:15:27;;;;;;;2.70;1.47;;;7.90;99.90;;;;;;5110643;28;20667;-77
2020/12/04 04:17:53;;;;;;;1.00;0.80;;;8.10;99.90;;;;;;5110687;28;20208;-75
2020/12/04 04:20:19;;;;;;;2.40;0.90;;;8.10;99.90;;;;;;5095040;28;20198;-76
2020/12/04 04:22:46;;;;;;;1.30;0.70;;;8.50;99.90;;;;;;5109172;28;20574;-76
2020/12/04 04:25:15;;;;;;;2.70;0.70;;;8.10;99.90;;;;;;5106362;28;20227;-74
2020/12/04 04:27:41;;;;;;;3.53;0.90;;;8.00;99.90;;;;;;5115075;28;20325;-75
2020/12/04 04:30:08;;;;;;;1.40;0.70;;;8.00;99.90;;;;;;5114896;28;20628;-76
2020/12/04 04:32:35;;;;;;;2.50;0.80;;;7.90;99.90;;;;;;5101755;28;20217;-75
2020/12/04 04:35:01;;;;;;;2.73;0.90;;;7.80;99.90;;;;;;5098922;28;20570;-75
2020/12/04 04:37:28;;;;;;;1.97;0.70;;;7.90;99.90;;;;;;5104468;28;20596;-76
2020/12/04 04:39:55;;;;;;;1.53;0.80;;;8.00;99.90;;;;;;5096423;28;20202;-75
2020/12/04 04:42:21;;;;;;;4.30;1.07;;;8.00;99.90;;;;;;5097680;28;20227;-75
2020/12/04 04:44:48;;;;;;;5.13;0.90;;;8.00;99.90;;;;;;5089508;28;20308;-73
2020/12/04 04:47:18;;;;;;;3.53;0.80;;;8.00;99.90;;;;;;5114779;28;20644;-73
2020/12/04 04:49:46;;;;;;;2.50;0.80;;;8.10;99.90;;;;;;5101766;28;20202;-76
2020/12/04 04:52:14;;;;;;;3.55;0.95;;;8.00;99.90;;;;;;5099716;28;20201;-74
2020/12/04 04:54:44;;;;;;;1.97;0.60;;;8.00;99.90;;;;;;5114682;28;20205;-74
2020/12/04 04:57:11;;;;;;;0.80;0.50;;;7.90;99.90;;;;;;5110345;28;20209;-73
2020/12/04 04:59:38;;;;;;;1.80;0.60;;;7.70;99.90;;;;;;5105091;28;20208;-74
2020/12/04 05:02:05;;;;;;;0.50;0.50;;;7.70;99.90;;;;;;5115156;28;20216;-75
2020/12/04 05:04:49;;;;;;;2.23;0.67;;;7.60;99.90;;;;;;5114120;28;20702;-74
2020/12/04 05:07:18;;;;;;;1.10;0.70;;;7.40;99.90;;;;;;5110604;28;20654;-74
2020/12/04 05:09:45;;;;;;;0.83;0.60;;;7.30;99.90;;;;;;5103739;28;20216;-74
2020/12/04 05:12:16;;;;;;;0.83;0.60;;;7.20;99.90;;;;;;5111800;28;20781;-75
2020/12/04 05:14:42;;;;;;;0.50;0.50;;;7.10;99.90;;;;;;5102716;28;20205;-74
2020/12/04 05:17:09;;;;;;;1.80;0.63;;;7.00;99.90;;;;;;5098668;28;20202;-74
2020/12/04 05:19:37;;;;;;;2.83;0.80;;;6.90;99.90;;;;;;5093569;28;20216;-74
2020/12/04 05:22:11;;;;;;;1.23;0.60;;;7.00;99.90;;;;;;5107760;28;20295;-74
2020/12/04 05:24:38;;;;;;;0.93;0.60;;;7.00;99.90;;;;;;5086382;28;20212;-73
2020/12/04 05:27:23;;;;;;;2.17;0.63;;;6.90;99.90;;;;;;5105501;28;20205;-73
2020/12/04 05:29:50;;;;;;;2.73;0.80;;;6.90;99.90;;;;;;5107722;28;20205;-74
2020/12/04 05:32:17;;;;;;;0.57;0.50;;;7.00;99.90;;;;;;5102784;28;20217;-74
2020/12/04 05:34:43;;;;;;;1.87;0.90;;;7.00;99.90;;;;;;5113242;28;20749;-74
2020/12/04 05:37:10;;;;;;;0.60;0.60;;;7.10;99.90;;;;;;5113508;28;20327;-75
2020/12/04 05:39:45;;;;;;;1.23;0.80;;;7.10;99.90;;;;;;5113416;28;20206;-75
2020/12/04 05:42:11;;;;;;;1.07;0.60;;;7.10;99.90;;;;;;5087206;28;20192;-75
2020/12/04 05:44:53;;;;;;;2.00;0.63;;;7.20;99.90;;;;;;5113537;28;20316;-75
2020/12/04 05:47:21;;;;;;;1.23;0.70;;;7.30;99.90;;;;;;5100639;28;20656;-75
2020/12/04 05:49:47;;;;;;;1.20;0.60;;;7.30;99.90;;;;;;5081575;28;20236;-75
2020/12/04 05:52:14;;;;;;;0.97;0.70;;;7.50;99.90;;;;;;5112791;28;20197;-75
2020/12/04 05:54:43;;;;;;;1.23;0.90;;;7.40;99.90;;;;;;5113655;28;20201;-76
2020/12/04 05:57:11;;;;;;;1.07;0.70;;;7.50;99.90;;;;;;5113008;28;20205;-75
2020/12/04 05:59:45;;;;;;;2.20;0.80;;;7.50;99.90;;;;;;5113682;28;20212;-76
2020/12/04 06:02:14;;;;;;;1.57;0.70;;;7.40;99.90;;;;;;5112852;28;20198;-76
2020/12/04 06:04:42;;;;;;;1.10;0.60;;;7.40;99.90;;;;;;5113202;28;20715;-75
2020/12/04 06:07:12;;;;;;;1.00;0.70;;;7.40;99.90;;;;;;5112744;28;20229;-75
2020/12/04 06:09:40;;;;;;;2.30;0.70;;;7.40;99.90;;;;;;5104847;28;20194;-76
2020/12/04 06:12:11;;;;;;;0.53;0.50;;;7.40;99.90;;;;;;5108296;28;20216;-74
2020/12/04 06:14:38;;;;;;;0.77;0.77;;;7.40;99.90;;;;;;5113295;28;20661;-76
2020/12/04 06:17:12;;;;;;;1.40;0.80;;;7.30;99.90;;;;;;5098514;28;20217;-75
2020/12/04 06:19:41;;;;;;;0.60;0.60;;;7.60;99.90;;;;;;5099868;28;20669;-76
2020/12/04 06:22:08;;;;;;;1.07;0.60;;;7.30;99.90;;;;;;5112916;28;20204;-76
2020/12/04 06:25:01;;;;;;;3.47;1.10;;;7.50;99.90;;;;;;5113072;28;20221;-76
2020/12/04 06:27:44;;;;;;;2.53;0.90;;;7.40;99.90;;;;;;5113292;28;20213;-75
2020/12/04 06:30:12;;;;;;;1.07;0.80;;;7.30;99.90;;;;;;5112821;28;20212;-76
2020/12/04 06:32:41;;;;;;;1.63;0.80;;;7.30;99.90;;;;;;5112922;28;20631;-76
2020/12/04 06:35:09;;;;;;;1.23;0.90;;;7.30;99.90;;;;;;5112759;28;20705;-76
2020/12/04 06:37:37;;;;;;;2.73;1.00;;;7.20;99.90;;;;;;5102099;28;20565;-75
2020/12/04 06:40:24;;;;;;;4.80;0.80;;;7.20;99.90;;;;;;5110670;28;20200;-75
2020/12/04 06:42:51;;;;;;;2.17;0.80;;;7.30;99.90;;;;;;5113376;28;20258;-75
2020/12/04 06:45:17;;;;;;;0.90;0.73;;;7.30;99.90;;;;;;5113038;28;20225;-76
2020/12/04 06:47:43;;;;;;;0.93;0.90;;;7.30;99.90;;;;;;5113327;28;20212;-76
2020/12/04 06:50:11;;;;;;;2.27;1.00;;;7.20;99.90;;;;;;5110362;28;20206;-77
2020/12/04 06:52:38;;;;;;;1.10;0.90;;;7.30;99.90;;;;;;5092874;28;20285;-75
2020/12/04 06:55:04;;;;;;;2.00;0.87;;;7.20;99.90;;;;;;5108880;28;20202;-75
2020/12/04 06:57:30;;;;;;;0.80;0.80;;;7.10;99.90;;;;;;5109022;28;20214;-74
2020/12/04 06:59:57;;;;;;;3.43;0.80;;;7.20;99.90;;;;;;5096779;28;20205;-75
2020/12/04 07:02:24;;;;;;;1.30;0.90;;;7.00;99.90;;;;;;5116142;28;20220;-76
2020/12/04 07:04:52;;;;;;;1.37;0.90;;;7.00;99.90;;;;;;5105246;28;20245;-75
2020/12/04 07:07:21;;;;;;;3.70;1.00;;;7.00;99.90;;;;;;5114972;28;20555;-75
2020/12/04 07:09:55;;;;;;;1.97;0.93;;;7.10;99.90;;;;;;5117080;28;20294;-76
2020/12/04 07:12:22;;;;;;;1.00;0.80;;;7.00;99.90;;;;;;5098592;28;20222;-75
2020/12/04 07:14:49;;;;;;;2.10;1.00;;;7.10;99.90;;;;;;5106079;28;20729;-75
2020/12/04 07:17:17;;;;;;;3.90;1.60;;;7.10;99.90;;;;;;5102213;28;20202;-75
2020/12/04 07:19:47;;;;;;;3.10;1.17;;;7.10;99.90;;;;;;5116599;28;20200;-76
2020/12/04 07:22:15;;;;;;;2.00;0.90;;;7.10;99.90;;;;;;5107588;28;20198;-74
2020/12/04 07:24:43;;;;;;;1.53;0.87;;;7.10;99.90;;;;;;5102320;28;20217;-74
2020/12/04 07:27:13;;;;;;;1.97;0.77;;;7.10;99.90;;;;;;5108247;28;20232;-74
2020/12/04 07:29:40;;;;;;;2.03;0.83;;;7.10;99.90;;;;;;5101817;28;20550;-75
2020/12/04 07:32:06;;;;;;;3.10;0.90;;;7.20;99.90;;;;;;5115831;28;20202;-74
2020/12/04 07:34:36;;;;;;;1.07;0.97;;;7.10;99.90;;;;;;5101487;28;20293;-75
2020/12/04 07:37:03;;;;;;;3.40;1.00;;;7.20;99.90;;;;;;5096178;28;20198;-74
2020/12/04 07:39:31;;;;;;;1.63;1.00;;;7.20;99.90;;;;;;5088743;28;20281;-79
2020/12/04 07:42:00;;;;;;;2.00;1.00;;;7.20;99.90;;;;;;5079477;28;20199;-76
2020/12/04 07:44:34;;;;;;;1.37;1.10;;;7.20;99.90;;;;;;5080883;28;20203;-75
2020/12/04 07:47:02;;;;;;;1.63;1.03;;;7.20;99.90;;;;;;5079368;28;20687;-76
2020/12/04 07:49:30;;;;;;;4.47;1.30;;;7.20;99.90;;;;;;5079722;28;20225;-75
2020/12/04 07:52:26;;;;;;;1.63;1.17;;;7.20;99.90;;;;;;5080217;28;20203;-76
2020/12/04 07:54:57;;;;;;;1.53;1.00;;;7.10;99.90;;;;;;5080507;28;20211;-76
2020/12/04 07:57:31;;;;;;;2.30;1.13;;;7.20;99.90;;;;;;5079747;28;20282;-77
2020/12/04 07:59:58;;;;;;;1.30;0.87;;;7.20;99.90;;;;;;5080755;28;20210;-75
2020/12/04 08:02:26;;;;;;;2.80;1.20;;;7.10;99.90;;;;;;5083112;28;20214;-75
2020/12/04 08:04:53;;;;;;;1.93;0.90;;;7.20;99.90;;;;;;5081234;28;20280;-74
2020/12/04 08:07:19;;;;;;;3.13;1.27;;;7.40;99.90;;;;;;5080069;28;20195;-74
2020/12/04 08:09:46;;;;;;;1.63;1.20;;;7.20;99.90;;;;;;5080447;28;20225;-77
2020/12/04 08:12:23;;;;;;;2.20;0.90;;;7.20;99.90;;;;;;5081463;28;20211;-78
2020/12/04 08:14:53;;;;;;;1.33;1.07;;;7.20;99.90;;;;;;5081461;28;20300;-76
2020/12/04 08:17:21;;;;;;;4.17;1.50;;;7.30;99.90;;;;;;5083383;28;20198;-75
2020/12/04 08:19:48;;;;;;;7.50;1.73;;;7.20;99.90;;;;;;5084270;28;20212;-76
2020/12/04 08:22:14;;;;;;;7.43;1.73;;;7.20;99.90;;;;;;5088937;28;20225;-77
2020/12/04 08:24:42;;;;;;;1.47;0.93;;;7.30;99.90;;;;;;5090042;28;20564;-78
2020/12/04 08:27:13;;;;;;;1.73;1.10;;;7.20;99.90;;;;;;5091150;28;20205;-79
2020/12/04 08:29:42;;;;;;;1.13;0.90;;;7.20;99.90;;;;;;5086495;28;20202;-80
2020/12/04 08:32:14;;;;;;;3.07;1.17;;;7.50;99.90;;;;;;5086839;28;20305;-76
2020/12/04 08:34:44;;;;;;;1.33;1.10;;;7.20;99.90;;;;;;5087989;28;20233;-78
2020/12/04 08:37:12;;;;;;;1.33;1.00;;;7.20;99.90;;;;;;5085327;28;20241;-77
2020/12/04 08:39:45;;;;;;;2.83;1.10;;;7.10;99.90;;;;;;5079563;28;20213;-78
2020/12/04 08:42:32;;;;;;;1.80;1.30;;;7.20;99.90;;;;;;5084505;28;20234;-77
2020/12/04 08:45:05;;;;;;;2.33;1.20;;;7.20;99.90;;;;;;5082856;28;20211;-77
2020/12/04 08:47:39;;;;;;;2.10;1.50;;;7.30;99.90;;;;;;5083543;28;20380;-78
2020/12/04 08:50:08;;;;;;;1.90;1.20;;;7.20;99.90;;;;;;5085685;28;20198;-77
2020/12/04 08:52:40;;;;;;;2.67;1.07;;;7.20;99.90;;;;;;5081405;28;20237;-79
2020/12/04 08:55:11;;;;;;;1.33;1.00;;;7.10;99.90;;;;;;5087552;28;20206;-78
2020/12/04 08:57:39;;;;;;;1.43;1.30;;;7.10;99.90;;;;;;5088057;28;20195;-78
2020/12/04 09:00:07;;;;;;;3.13;1.27;;;7.20;99.90;;;;;;5094035;28;20221;-76
2020/12/04 09:02:35;;;;;;;2.80;1.00;;;7.10;99.90;;;;;;5090540;28;20252;-77
2020/12/04 09:05:02;;;;;;;1.67;1.20;;;7.20;99.90;;;;;;5094307;28;20597;-77
2020/12/04 09:07:29;;;;;;;3.13;1.40;;;7.10;99.90;;;;;;5097519;28;20285;-78
2020/12/04 09:09:55;;;;;;;2.70;1.10;;;7.20;99.90;;;;;;5093555;28;20281;-78
2020/12/04 09:12:23;;;;;;;4.43;1.00;;;7.10;99.90;;;;;;5094366;28;20208;-78
2020/12/04 09:14:50;;;;;;;1.43;1.27;;;7.10;99.90;;;;;;5093568;28;20285;-78
2020/12/04 09:17:17;;;;;;;1.40;1.30;;;7.10;99.90;;;;;;5093637;28;20214;-77
2020/12/04 09:19:45;;;;;;;1.10;1.00;;;7.10;99.90;;;;;;5092649;28;20880;-76
2020/12/04 09:22:13;;;;;;;1.63;1.40;;;7.10;99.90;;;;;;5093418;28;20248;-76
2020/12/04 09:24:39;;;;;;;1.20;1.10;;;7.00;99.90;;;;;;5099666;28;20201;-77
2020/12/04 09:27:05;;;;;;;3.37;1.57;;;7.00;99.90;;;;;;5113962;28;20256;-77
2020/12/04 09:29:32;;;;;;;1.30;1.10;;;7.10;99.90;;;;;;5114287;28;20208;-77
2020/12/04 09:32:04;;;;;;;1.27;1.10;;;7.10;99.90;;;;;;5106708;28;20227;-76
2020/12/04 09:34:31;;;;;;;1.57;1.20;;;7.00;99.90;;;;;;5108284;28;20197;-77
2020/12/04 09:37:16;;;;;;;0.87;0.87;;;7.00;99.90;;;;;;5114353;28;20540;-77
2020/12/04 09:39:44;;;;;;;2.30;1.20;;;7.00;99.90;;;;;;5113256;28;20199;-76
2020/12/04 09:42:12;;;;;;;1.40;0.80;;;6.90;99.90;;;;;;5093364;28;20195;-75
2020/12/04 09:44:38;;;;;;;1.93;1.00;;;6.90;99.90;;;;;;5106860;28;20284;-76
2020/12/04 09:47:05;;;;;;;1.60;1.00;;;7.00;99.90;;;;;;5113258;28;20233;-75
2020/12/04 09:49:32;;;;;;;1.40;1.30;;;7.00;99.90;;;;;;5113360;28;20209;-74
2020/12/04 09:51:59;;;;;;;2.67;1.00;;;7.00;99.90;;;;;;5098926;28;20209;-76
2020/12/04 09:54:27;;;;;;;2.43;1.20;;;7.00;99.90;;;;;;5113216;28;20285;-75
2020/12/04 09:56:54;;;;;;;2.80;0.90;;;7.00;99.90;;;;;;5099387;28;20307;-76
2020/12/04 09:59:21;;;;;;;1.03;1.00;;;7.00;99.90;;;;;;5113443;28;20236;-77
2020/12/04 10:01:49;;;;;;;1.30;1.20;;;7.10;99.90;;;;;;5112605;28;20212;-76
2020/12/04 10:04:15;;;;;;;1.00;1.00;;;7.20;99.90;;;;;;5099772;28;20204;-76
2020/12/04 10:06:42;;;;;;;1.63;1.20;;;7.30;99.90;;;;;;5113079;28;20311;-77
2020/12/04 10:09:08;;;;;;;3.10;1.47;;;7.30;99.90;;;;;;5113246;28;20193;-76
2020/12/04 10:11:35;;;;;;;1.20;1.10;;;7.30;99.90;;;;;;5113327;28;20202;-76
2020/12/04 10:14:01;;;;;;;3.30;1.43;;;7.30;99.90;;;;;;5080524;28;20732;-75
2020/12/04 10:16:28;;;;;;;2.27;1.60;;;7.30;99.90;;;;;;5079406;28;20222;-75
2020/12/04 10:18:54;;;;;;;2.03;1.63;;;7.30;99.90;;;;;;5078847;28;20568;-78
2020/12/04 10:21:20;;;;;;;1.53;1.43;;;7.40;99.90;;;;;;5079650;28;20208;-76
2020/12/04 10:23:47;;;;;;;1.50;1.40;;;7.50;99.90;;;;;;5090857;28;20293;-77
2020/12/04 10:26:13;;;;;;;1.67;1.57;;;7.50;99.90;;;;;;5107565;28;20232;-77
2020/12/04 10:28:40;;;;;;;2.17;1.70;;;7.60;99.90;;;;;;5112150;28;20669;-75
2020/12/04 10:31:07;;;;;;;1.93;1.40;;;7.60;99.90;;;;;;5114696;28;20288;-76
2020/12/04 10:33:33;;;;;;;1.70;1.60;;;7.50;99.90;;;;;;5117441;28;20211;-76
2020/12/04 10:36:02;;;;;;;2.20;1.87;;;7.50;99.90;;;;;;5105052;28;20198;-75
2020/12/04 10:38:28;;;;;;;2.00;1.63;;;7.40;99.90;;;;;;5115766;28;20224;-76
2020/12/04 10:40:55;;;;;;;1.73;1.63;;;7.50;99.90;;;;;;5117480;28;20296;-75
2020/12/04 10:43:22;;;;;;;2.00;1.57;;;7.50;99.90;;;;;;5116941;28;20629;-76
2020/12/04 10:45:49;;;;;;;1.50;1.40;;;7.60;99.90;;;;;;5108174;28;20682;-76
2020/12/04 10:48:16;;;;;;;2.40;1.50;;;7.50;99.90;;;;;;5098170;28;20213;-75
2020/12/04 10:50:43;;;;;;;1.73;1.50;;;7.60;99.90;;;;;;5098532;28;20200;-76
2020/12/04 10:53:10;;;;;;;1.17;1.07;;;7.60;99.90;;;;;;5096962;28;20289;-77
2020/12/04 10:55:36;;;;;;;2.03;1.07;;;7.70;99.90;;;;;;5096740;28;20200;-75
2020/12/04 10:58:02;;;;;;;1.10;1.00;;;7.60;99.90;;;;;;5096732;28;20662;-75
2020/12/04 11:00:29;;;;;;;8.77;1.80;;;7.50;99.90;;;;;;5096651;28;20283;-76
2020/12/04 11:03:02;;;;;;;2.53;1.27;;;7.50;99.90;;;;;;5099830;28;20238;-76
2020/12/04 11:05:37;;;;;;;1.93;1.13;;;7.40;99.90;;;;;;5096249;28;20229;-75
2020/12/04 11:08:03;;;;;;;2.50;1.20;;;7.40;99.90;;;;;;5086372;28;20584;-75
2020/12/04 11:10:29;;;;;;;1.30;1.20;;;7.50;99.90;;;;;;5096224;28;20226;-75
2020/12/04 11:12:56;;;;;;;2.33;1.17;;;7.50;99.90;;;;;;5096454;28;20566;-76
2020/12/04 11:15:22;;;;;;;1.93;1.33;;;7.50;99.90;;;;;;5096321;28;20205;-76
2020/12/04 11:17:48;;;;;;;1.50;1.40;;;7.50;99.90;;;;;;5099835;28;20206;-75
2020/12/04 11:20:16;;;;;;;1.93;1.33;;;7.60;99.90;;;;;;5100209;28;20198;-74
2020/12/04 11:22:42;;;;;;;2.13;1.30;;;7.50;99.90;;;;;;5099713;28;20315;-76
2020/12/04 11:25:09;;;;;;;1.63;1.40;;;7.50;99.90;;;;;;5106250;28;20217;-75
2020/12/04 11:27:39;;;;;;;1.80;1.43;;;7.40;99.90;;;;;;5103016;28;20198;-75
2020/12/04 11:30:06;;;;;;;2.50;1.60;;;7.50;99.90;;;;;;5115772;28;20201;-75
2020/12/04 11:32:33;;;;;;;1.50;1.40;;;7.60;99.90;;;;;;5116395;28;20773;-75
2020/12/04 11:34:59;;;;;;;2.00;1.13;;;7.80;99.90;;;;;;5112048;28;20194;-76
2020/12/04 11:37:27;;;;;;;1.70;1.40;;;7.60;99.90;;;;;;5096028;28;20564;-75
2020/12/04 11:39:53;;;;;;;1.70;1.60;;;7.70;99.90;;;;;;5110164;28;20523;-75
2020/12/04 11:42:20;;;;;;;3.60;1.40;;;7.70;99.90;;;;;;5095519;28;20214;-75
2020/12/04 11:44:46;;;;;;;4.93;1.40;;;7.70;99.90;;;;;;5109974;28;20193;-75
2020/12/04 11:47:12;;;;;;;1.90;1.50;;;7.70;99.90;;;;;;5115389;28;20282;-76
2020/12/04 11:49:39;;;;;;;1.83;1.33;;;7.60;99.90;;;;;;5115706;28;20206;-76
2020/12/04 11:52:06;;;;;;;1.20;1.10;;;7.60;99.90;;;;;;5096539;28;20202;-75
2020/12/04 11:54:33;;;;;;;2.20;1.17;;;7.60;99.90;;;;;;5095529;28;20627;-75
2020/12/04 11:57:00;;;;;;;1.77;1.30;;;7.60;99.90;;;;;;5098713;28;20273;-76
2020/12/04 11:59:26;;;;;;;1.70;0.97;;;7.50;99.90;;;;;;5095248;28;20203;-76
2020/12/04 12:01:52;;;;;;;1.20;1.07;;;7.50;99.90;;;;;;5096436;28;20193;-76
2020/12/04 12:04:20;;;;;;;3.90;1.00;;;7.60;99.90;;;;;;5108458;28;20199;-76
2020/12/04 12:06:46;;;;;;;4.30;1.00;;;7.60;99.90;;;;;;5095326;28;20649;-76
2020/12/04 12:09:13;;;;;;;0.97;0.97;;;7.60;99.90;;;;;;5095309;28;20657;-76
2020/12/04 12:11:40;;;;;;;0.80;0.80;;;7.60;99.90;;;;;;5095557;28;20562;-76
2020/12/04 12:14:06;;;;;;;1.60;1.10;;;7.60;99.90;;;;;;5114081;28;20210;-76
2020/12/04 12:16:32;;;;;;;1.80;1.40;;;7.60;99.90;;;;;;5106072;28;20236;-76
2020/12/04 12:18:59;;;;;;;2.83;0.90;;;7.60;99.90;;;;;;5111565;28;20552;-77
2020/12/04 12:21:25;;;;;;;4.60;1.00;;;7.60;99.90;;;;;;5115460;28;20570;-77
2020/12/04 12:23:51;;;;;;;1.53;0.90;;;7.60;99.90;;;;;;5115448;28;20208;-79
2020/12/04 12:26:18;;;;;;;2.83;1.03;;;7.60;99.90;;;;;;5115190;28;20224;-76
2020/12/04 12:28:46;;;;;;;0.70;0.70;;;7.50;99.90;;;;;;5107474;28;20212;-76
2020/12/04 12:31:13;;;;;;;3.60;0.90;;;7.50;99.90;;;;;;5109250;28;20198;-76
2020/12/04 12:33:39;;;;;;;2.57;0.97;;;7.50;99.90;;;;;;5101784;28;20213;-76
2020/12/04 12:36:06;;;;;;;1.93;1.00;;;7.50;99.90;;;;;;5114867;28;20617;-77
2020/12/04 12:38:32;;;;;;;16.87;1.50;;;7.50;99.90;;;;;;5090749;28;20571;-76
2020/12/04 12:40:59;;;;;;;1.33;1.00;;;7.50;99.90;;;;;;5085842;28;20210;-76
2020/12/04 12:43:25;;;;;;;2.10;1.13;;;7.50;99.90;;;;;;5108693;28;20606;-76
2020/12/04 12:45:52;;;;;;;1.33;0.90;;;7.60;99.90;;;;;;5104152;28;20231;-76
2020/12/04 12:48:18;;;;;;;1.10;1.00;;;7.50;99.90;;;;;;5114527;28;20217;-76
2020/12/04 12:50:45;;;;;;;1.87;1.13;;;7.50;99.90;;;;;;5107138;28;20653;-76
2020/12/04 12:53:11;;;;;;;3.40;0.97;;;7.40;99.90;;;;;;5107905;28;20648;-75
2020/12/04 12:55:37;;;;;;;2.93;1.07;;;7.30;99.90;;;;;;5094295;28;20202;-76
2020/12/04 12:58:04;;;;;;;1.17;0.90;;;7.40;99.90;;;;;;5094285;28;20772;-75
2020/12/04 13:00:30;;;;;;;1.73;1.10;;;7.40;99.90;;;;;;5108245;28;20200;-74